Time;durP1;ratioP1;P1;durP2;ratioP2;P2;SDS_P1;SDS_P2;PMS_P1;PMS_P2;Temp;Humidity;BMP_temperature;BMP_pressure;BME280_temperature;BME280_humidity;BME280_pressure;Samples;Min_cycle;Max_cycle;Signal;HPM_P1;HPM_P2
2021/12/07 00:00:43;;;;;;;1.03;0.90;;;-0.10;99.40;;;;;;2088786;28;20188;-68
2021/12/07 00:01:44;;;;;;;0.90;0.80;;;-0.20;99.40;;;;;;2088591;28;20175;-67
2021/12/07 00:02:46;;;;;;;1.00;0.88;;;-0.20;99.40;;;;;;2088879;28;20208;-68
2021/12/07 00:03:47;;;;;;;0.80;0.80;;;-0.10;99.50;;;;;;2089733;28;20189;-67
2021/12/07 00:04:47;;;;;;;1.50;0.90;;;-0.20;99.50;;;;;;2089035;28;20267;-68
2021/12/07 00:05:50;;;;;;;1.00;0.80;;;-0.20;99.50;;;;;;2089102;28;20187;-68
2021/12/07 00:06:51;;;;;;;0.80;0.80;;;-0.10;99.60;;;;;;2089329;28;20529;-68
2021/12/07 00:07:52;;;;;;;2.47;0.93;;;-0.10;99.60;;;;;;2089480;28;20242;-67
2021/12/07 00:08:55;;;;;;;1.27;0.80;;;-0.10;99.50;;;;;;2089329;28;20172;-67
2021/12/07 00:09:56;;;;;;;1.65;0.93;;;-0.10;99.60;;;;;;2089233;28;20271;-68
2021/12/07 00:10:57;;;;;;;1.03;0.80;;;-0.10;99.70;;;;;;2089234;28;20176;-67
2021/12/07 00:12:03;;;;;;;1.17;0.80;;;-0.10;99.70;;;;;;2088552;28;20180;-68
2021/12/07 00:13:05;;;;;;;0.70;0.70;;;-0.10;99.50;;;;;;2088696;28;20207;-67
2021/12/07 00:14:12;;;;;;;0.70;0.60;;;-0.10;99.60;;;;;;2088589;28;20188;-67
2021/12/07 00:15:17;;;;;;;0.90;0.73;;;-0.10;99.80;;;;;;2081168;28;20177;-68
2021/12/07 00:16:19;;;;;;;0.93;0.85;;;-0.10;99.90;;;;;;2088577;28;20703;-68
2021/12/07 00:17:19;;;;;;;0.95;0.82;;;-0.10;99.90;;;;;;2088333;28;20291;-67
2021/12/07 00:18:20;;;;;;;0.63;0.63;;;-0.10;99.90;;;;;;2088671;28;20176;-67
2021/12/07 00:19:22;;;;;;;0.93;0.83;;;-0.10;99.90;;;;;;2089050;28;20251;-67
2021/12/07 00:20:24;;;;;;;0.88;0.75;;;-0.10;99.90;;;;;;2089124;28;20168;-67
2021/12/07 00:21:25;;;;;;;3.00;1.08;;;-0.10;99.90;;;;;;2090070;28;20183;-69
2021/12/07 00:22:27;;;;;;;0.80;0.80;;;0.00;99.90;;;;;;2090021;28;20176;-68
2021/12/07 00:23:27;;;;;;;0.70;0.63;;;0.00;99.90;;;;;;2090055;28;20169;-68
2021/12/07 00:24:28;;;;;;;0.60;0.60;;;0.00;99.90;;;;;;2089876;28;20733;-68
2021/12/07 00:25:30;;;;;;;1.23;0.63;;;0.00;99.90;;;;;;2090697;28;20200;-67
2021/12/07 00:26:31;;;;;;;0.50;0.50;;;0.00;99.90;;;;;;2090019;28;20179;-67
2021/12/07 00:27:31;;;;;;;0.50;0.50;;;0.00;99.90;;;;;;2089769;28;20204;-67
2021/12/07 00:28:33;;;;;;;0.50;0.50;;;0.00;99.90;;;;;;2090608;28;20644;-67
2021/12/07 00:29:33;;;;;;;0.73;0.40;;;0.00;99.90;;;;;;2090588;28;20181;-67
2021/12/07 00:30:35;;;;;;;0.77;0.40;;;0.00;99.90;;;;;;2089900;28;20564;-67
2021/12/07 00:31:42;;;;;;;0.57;0.52;;;0.00;99.90;;;;;;2089969;28;20227;-67
2021/12/07 00:32:51;;;;;;;0.82;0.50;;;0.00;99.90;;;;;;2090848;28;20183;-67
2021/12/07 00:34:07;;;;;;;0.40;0.40;;;0.00;99.90;;;;;;2090615;28;20273;-67
2021/12/07 00:35:33;;;;;;;0.43;0.30;;;0.00;99.90;;;;;;2090569;28;20282;-68
2021/12/07 00:36:37;;;;;;;0.50;0.40;;;0.10;99.90;;;;;;2090467;28;20165;-67
2021/12/07 00:37:41;;;;;;;0.20;0.20;;;0.10;99.90;;;;;;2089650;28;20204;-67
2021/12/07 00:38:42;;;;;;;0.30;0.30;;;0.10;99.90;;;;;;2089976;28;20194;-67
2021/12/07 00:39:42;;;;;;;0.77;0.55;;;0.10;99.90;;;;;;2090349;28;20195;-67
2021/12/07 00:40:44;;;;;;;0.40;0.40;;;0.10;99.90;;;;;;2090180;28;20173;-67
2021/12/07 00:41:47;;;;;;;0.60;0.50;;;0.10;99.90;;;;;;2089934;28;20717;-70
2021/12/07 00:42:48;;;;;;;0.63;0.40;;;0.10;99.90;;;;;;2089864;28;20177;-67
2021/12/07 00:43:49;;;;;;;0.30;0.30;;;0.20;99.90;;;;;;2090564;28;20173;-67
2021/12/07 00:44:49;;;;;;;0.30;0.30;;;0.20;99.90;;;;;;2090649;28;20838;-68
2021/12/07 00:45:51;;;;;;;0.30;0.30;;;0.20;99.90;;;;;;2090291;28;20651;-67
2021/12/07 00:46:53;;;;;;;0.32;0.22;;;0.20;99.90;;;;;;2089648;28;20177;-67
2021/12/07 00:47:54;;;;;;;0.75;0.47;;;0.20;99.90;;;;;;2089719;28;20270;-67
2021/12/07 00:48:55;;;;;;;0.17;0.17;;;0.20;99.90;;;;;;2090587;28;20188;-67
2021/12/07 00:49:56;;;;;;;0.40;0.37;;;0.20;99.90;;;;;;2089632;28;20757;-67
2021/12/07 00:50:58;;;;;;;0.30;0.30;;;0.20;99.90;;;;;;2081506;28;20177;-67
2021/12/07 00:51:59;;;;;;;0.52;0.38;;;0.20;99.90;;;;;;2089593;28;20184;-67
2021/12/07 00:53:02;;;;;;;0.30;0.30;;;0.20;99.90;;;;;;2089751;28;20203;-67
2021/12/07 00:54:04;;;;;;;0.30;0.30;;;0.20;99.90;;;;;;2090391;28;20176;-67
2021/12/07 00:55:17;;;;;;;0.35;0.35;;;0.20;99.90;;;;;;2089892;28;20188;-67
2021/12/07 00:56:18;;;;;;;0.30;0.30;;;0.30;99.90;;;;;;2089949;28;20165;-67
2021/12/07 00:57:20;;;;;;;0.40;0.40;;;0.30;99.90;;;;;;2090028;28;20247;-68
2021/12/07 00:58:24;;;;;;;0.30;0.30;;;0.30;99.90;;;;;;2089159;28;20187;-67
2021/12/07 00:59:25;;;;;;;0.50;0.50;;;0.40;99.80;;;;;;2089702;28;20172;-68
2021/12/07 01:00:30;;;;;;;0.40;0.40;;;0.40;99.50;;;;;;2089682;28;20272;-67
2021/12/07 01:01:32;;;;;;;0.30;0.30;;;0.40;99.50;;;;;;2089738;28;20185;-68
2021/12/07 01:02:33;;;;;;;0.40;0.40;;;0.40;99.40;;;;;;2089606;28;20176;-68
2021/12/07 01:03:35;;;;;;;0.40;0.40;;;0.40;99.40;;;;;;2089712;28;20178;-67
2021/12/07 01:04:36;;;;;;;0.45;0.45;;;0.40;99.30;;;;;;2090296;28;20208;-68
2021/12/07 01:05:39;;;;;;;0.50;0.50;;;0.50;99.40;;;;;;2090413;28;20173;-68
2021/12/07 01:06:59;;;;;;;0.40;0.40;;;0.50;99.50;;;;;;2097604;28;20569;-68
2021/12/07 01:09:13;;;;;;;0.50;0.50;;;0.50;99.90;;;;;;2090308;28;20255;-68
2021/12/07 01:24:52;;;;;;;0.52;0.40;;;0.50;99.90;;;;;;2090210;28;20164;-68
2021/12/07 01:25:55;;;;;;;0.70;0.50;;;0.50;99.90;;;;;;2089607;28;20836;-68
2021/12/07 01:26:56;;;;;;;0.50;0.50;;;0.50;99.90;;;;;;2089405;28;20279;-68
2021/12/07 01:28:06;;;;;;;0.90;0.50;;;0.50;99.90;;;;;;2090110;28;20191;-68
2021/12/07 01:29:07;;;;;;;0.43;0.43;;;0.50;99.90;;;;;;2089885;28;20169;-67
2021/12/07 01:30:16;;;;;;;0.27;0.27;;;0.50;99.90;;;;;;2089452;28;20180;-68
2021/12/07 01:31:24;;;;;;;0.40;0.40;;;0.50;99.90;;;;;;2089463;28;20702;-68
2021/12/07 01:32:39;;;;;;;0.40;0.40;;;0.50;99.90;;;;;;2090226;28;20714;-68
2021/12/07 01:37:54;;;;;;;0.50;0.50;;;0.50;99.90;;;;;;2090023;28;20212;-68
2021/12/07 01:39:37;;;;;;;0.40;0.40;;;0.40;99.90;;;;;;2089829;28;20188;-68
2021/12/07 01:50:40;;;;;;;0.40;0.40;;;0.40;99.90;;;;;;2089387;28;20180;-68
2021/12/07 01:52:02;;;;;;;0.25;0.25;;;0.40;99.90;;;;;;2087836;28;20168;-67
2021/12/07 01:53:14;;;;;;;0.30;0.30;;;0.40;99.90;;;;;;2089735;28;20250;-68
2021/12/07 01:59:33;;;;;;;0.20;0.20;;;0.40;99.90;;;;;;2083593;28;20414;-68
2021/12/07 02:00:38;;;;;;;0.40;0.25;;;0.40;99.90;;;;;;2089502;28;20235;-68
2021/12/07 02:01:39;;;;;;;0.20;0.20;;;0.40;99.90;;;;;;2089923;28;20310;-68
2021/12/07 02:02:41;;;;;;;0.30;0.30;;;0.40;99.90;;;;;;2090077;28;20180;-68
2021/12/07 02:03:42;;;;;;;0.20;0.20;;;0.40;99.90;;;;;;2089260;28;20181;-68
2021/12/07 02:04:43;;;;;;;0.30;0.30;;;0.40;99.90;;;;;;2081333;28;20799;-68
2021/12/07 02:05:44;;;;;;;0.30;0.30;;;0.40;99.90;;;;;;2089352;28;20670;-67
2021/12/07 02:06:45;;;;;;;0.47;0.47;;;0.50;99.90;;;;;;2089898;28;20565;-68
2021/12/07 02:07:46;;;;;;;0.47;0.47;;;0.50;99.90;;;;;;2091622;28;20176;-68
2021/12/07 02:08:47;;;;;;;0.25;0.25;;;0.50;99.90;;;;;;2091877;28;20192;-68
2021/12/07 02:09:52;;;;;;;0.87;0.50;;;0.50;99.90;;;;;;2090611;28;20188;-67
2021/12/07 02:10:58;;;;;;;1.35;0.60;;;0.50;99.90;;;;;;2089650;28;20244;-68
2021/12/07 02:12:00;;;;;;;0.38;0.38;;;0.50;99.90;;;;;;2090048;28;20189;-68
2021/12/07 02:13:06;;;;;;;0.25;0.20;;;0.50;99.90;;;;;;2089887;28;20184;-68
2021/12/07 02:14:16;;;;;;;0.45;0.45;;;0.50;99.90;;;;;;2090066;28;20184;-67
2021/12/07 02:15:22;;;;;;;0.30;0.30;;;0.50;99.90;;;;;;2089371;28;20169;-68
2021/12/07 02:16:26;;;;;;;0.22;0.22;;;0.50;99.90;;;;;;2083099;28;20184;-68
2021/12/07 02:17:27;;;;;;;0.30;0.30;;;0.50;99.90;;;;;;2089068;28;20216;-68
2021/12/07 02:18:28;;;;;;;0.30;0.30;;;0.50;99.90;;;;;;2089757;28;20181;-68
2021/12/07 02:19:29;;;;;;;0.28;0.28;;;0.50;99.90;;;;;;2089876;28;20638;-67
2021/12/07 02:20:31;;;;;;;0.30;0.30;;;0.50;99.90;;;;;;2089809;28;20180;-68
2021/12/07 02:21:32;;;;;;;0.93;0.40;;;0.50;99.90;;;;;;2089915;28;20173;-68
2021/12/07 02:22:32;;;;;;;0.40;0.40;;;0.50;99.90;;;;;;2089102;28;20668;-68
2021/12/07 02:23:33;;;;;;;0.57;0.47;;;0.60;99.90;;;;;;2089121;28;20200;-68
2021/12/07 02:24:34;;;;;;;0.40;0.40;;;0.60;99.90;;;;;;2089196;28;20172;-68
2021/12/07 02:25:35;;;;;;;0.67;0.40;;;0.60;99.90;;;;;;2081070;28;20203;-69
2021/12/07 02:26:36;;;;;;;1.73;0.60;;;0.60;99.90;;;;;;2089201;28;20234;-68
2021/12/07 02:27:37;;;;;;;0.40;0.40;;;0.50;99.90;;;;;;2089839;28;20180;-68
2021/12/07 02:28:40;;;;;;;0.30;0.30;;;0.50;99.90;;;;;;2089703;28;20271;-68
2021/12/07 02:29:40;;;;;;;2.00;0.50;;;0.60;99.90;;;;;;2089218;28;20177;-68
2021/12/07 02:30:44;;;;;;;0.40;0.40;;;0.50;99.90;;;;;;2089112;28;20195;-68
2021/12/07 02:31:46;;;;;;;2.15;0.50;;;0.60;99.90;;;;;;2089202;28;20183;-69
2021/12/07 02:32:50;;;;;;;0.50;0.50;;;0.50;99.90;;;;;;2081059;28;20221;-68
2021/12/07 02:33:51;;;;;;;0.50;0.43;;;0.50;99.90;;;;;;2089070;28;20609;-67
2021/12/07 02:34:59;;;;;;;0.40;0.40;;;0.50;99.90;;;;;;2089930;28;20272;-69
2021/12/07 02:35:59;;;;;;;0.40;0.40;;;0.50;99.90;;;;;;2089952;28;20198;-68
2021/12/07 02:37:00;;;;;;;0.70;0.53;;;0.50;99.90;;;;;;2089413;28;20200;-67
2021/12/07 02:38:01;;;;;;;0.40;0.40;;;0.50;99.90;;;;;;2080813;28;20180;-67
2021/12/07 02:39:08;;;;;;;0.50;0.50;;;0.50;99.90;;;;;;2072647;28;20170;-68
2021/12/07 02:40:09;;;;;;;1.17;0.50;;;0.50;99.90;;;;;;2089176;28;20710;-68
2021/12/07 02:41:10;;;;;;;0.57;0.57;;;0.50;99.90;;;;;;2089223;28;20189;-68
2021/12/07 02:42:11;;;;;;;0.37;0.37;;;0.50;99.90;;;;;;2089055;28;20172;-68
2021/12/07 02:43:11;;;;;;;0.47;0.47;;;0.50;99.90;;;;;;2088681;28;20774;-68
2021/12/07 02:44:13;;;;;;;0.30;0.30;;;0.50;99.90;;;;;;2088949;28;20238;-68
2021/12/07 02:45:19;;;;;;;0.60;0.50;;;0.50;99.90;;;;;;2089571;28;20176;-67
2021/12/07 02:46:20;;;;;;;1.30;0.50;;;0.50;99.90;;;;;;2089037;28;20181;-68
2021/12/07 02:47:21;;;;;;;0.60;0.60;;;0.50;99.90;;;;;;2088884;28;20668;-68
2021/12/07 02:48:23;;;;;;;0.40;0.40;;;0.50;99.90;;;;;;2089745;28;20506;-68
2021/12/07 02:49:24;;;;;;;0.50;0.40;;;0.50;99.90;;;;;;2089070;28;20180;-67
2021/12/07 02:50:25;;;;;;;0.80;0.50;;;0.50;99.90;;;;;;2080533;28;20748;-68
2021/12/07 02:51:26;;;;;;;0.43;0.43;;;0.50;99.90;;;;;;2088956;28;20683;-68
2021/12/07 02:52:26;;;;;;;1.33;0.60;;;0.50;99.90;;;;;;2089664;28;20180;-68
2021/12/07 02:53:30;;;;;;;2.43;0.67;;;0.50;99.90;;;;;;2089616;28;20177;-68
2021/12/07 02:54:36;;;;;;;0.85;0.60;;;0.50;99.90;;;;;;2089612;28;20227;-68
2021/12/07 02:55:37;;;;;;;0.40;0.40;;;0.50;99.90;;;;;;2088799;28;20199;-68
2021/12/07 02:56:37;;;;;;;0.53;0.53;;;0.50;99.90;;;;;;2088845;28;20283;-68
2021/12/07 02:57:38;;;;;;;0.47;0.47;;;0.50;99.90;;;;;;2089311;28;20303;-68
2021/12/07 02:58:42;;;;;;;3.13;0.50;;;0.60;99.90;;;;;;2089296;28;20191;-68
2021/12/07 02:59:49;;;;;;;0.45;0.45;;;0.50;99.90;;;;;;2089520;28;20641;-68
2021/12/07 03:01:00;;;;;;;0.50;0.50;;;0.60;99.90;;;;;;2089363;28;20222;-68
2021/12/07 03:02:05;;;;;;;0.43;0.40;;;0.60;99.90;;;;;;2089027;28;20247;-68
2021/12/07 03:03:09;;;;;;;1.20;0.50;;;0.60;99.70;;;;;;2089088;28;20820;-67
2021/12/07 03:04:24;;;;;;;1.55;0.60;;;0.60;99.60;;;;;;2089485;28;20180;-68
2021/12/07 03:26:42;;;;;;;0.40;0.40;;;0.60;99.90;;;;;;2089314;28;20184;-68
2021/12/07 03:27:44;;;;;;;0.90;0.53;;;0.60;99.90;;;;;;2089308;28;20177;-68
2021/12/07 03:28:49;;;;;;;0.68;0.60;;;0.60;99.90;;;;;;2089436;28;20552;-68
2021/12/07 03:29:50;;;;;;;1.90;0.50;;;0.60;99.90;;;;;;2088869;28;20687;-68
2021/12/07 03:30:51;;;;;;;0.70;0.60;;;0.60;99.80;;;;;;2088571;28;20180;-68
2021/12/07 03:31:52;;;;;;;0.93;0.60;;;0.60;99.90;;;;;;2088895;28;20234;-67
2021/12/07 03:32:53;;;;;;;0.57;0.50;;;0.60;99.40;;;;;;2088729;28;20548;-68
2021/12/07 03:33:55;;;;;;;1.33;0.50;;;0.60;99.00;;;;;;2088315;28;20204;-68
2021/12/07 03:34:56;;;;;;;0.80;0.60;;;0.60;98.90;;;;;;2088792;28;20337;-68
2021/12/07 03:35:57;;;;;;;1.53;0.60;;;0.60;99.10;;;;;;2088771;28;20181;-67
2021/12/07 03:36:58;;;;;;;0.40;0.40;;;0.60;99.20;;;;;;2088619;28;20707;-68
2021/12/07 03:38:00;;;;;;;0.57;0.55;;;0.60;99.40;;;;;;2089435;28;20242;-68
2021/12/07 03:39:01;;;;;;;0.68;0.68;;;0.60;99.30;;;;;;2088776;28;20208;-68
2021/12/07 03:40:02;;;;;;;0.60;0.60;;;0.60;99.20;;;;;;2088657;28;20179;-68
2021/12/07 03:41:04;;;;;;;2.42;0.60;;;0.60;99.20;;;;;;2088763;28;20181;-68
2021/12/07 03:42:05;;;;;;;0.63;0.60;;;0.60;99.60;;;;;;2080679;28;20315;-68
2021/12/07 03:43:07;;;;;;;2.07;0.70;;;0.60;99.60;;;;;;2088667;28;20250;-68
2021/12/07 03:44:08;;;;;;;1.30;0.65;;;0.60;99.40;;;;;;2088611;28;20179;-68
2021/12/07 03:45:10;;;;;;;1.40;0.80;;;0.60;99.40;;;;;;2088641;28;20703;-68
2021/12/07 03:46:11;;;;;;;1.33;0.50;;;0.70;99.20;;;;;;2088720;28;20179;-68
2021/12/07 03:47:12;;;;;;;0.82;0.52;;;0.70;99.00;;;;;;2088506;28;20704;-68
2021/12/07 03:48:14;;;;;;;2.33;0.60;;;0.70;99.20;;;;;;2089456;28;20177;-68
2021/12/07 03:49:14;;;;;;;0.85;0.63;;;0.70;98.80;;;;;;2089246;28;20271;-68
2021/12/07 03:50:15;;;;;;;0.83;0.83;;;0.70;98.70;;;;;;2088894;28;20177;-67
2021/12/07 03:51:16;;;;;;;1.27;0.80;;;0.70;98.30;;;;;;2089112;28;20205;-68
2021/12/07 03:52:17;;;;;;;0.90;0.80;;;0.70;98.20;;;;;;2089246;28;20641;-67
2021/12/07 03:53:18;;;;;;;2.50;0.70;;;0.70;98.30;;;;;;2089426;28;20180;-68
2021/12/07 03:54:20;;;;;;;1.60;0.60;;;0.70;98.50;;;;;;2089297;28;20257;-69
2021/12/07 03:55:21;;;;;;;0.70;0.70;;;0.70;98.60;;;;;;2088634;28;20247;-68
2021/12/07 03:56:22;;;;;;;1.00;0.80;;;0.70;98.40;;;;;;2090214;28;20177;-68
2021/12/07 03:57:22;;;;;;;3.13;0.90;;;0.70;97.90;;;;;;2090751;28;20213;-68
2021/12/07 03:58:24;;;;;;;0.80;0.60;;;0.70;98.10;;;;;;2090831;28;20180;-68
2021/12/07 03:59:24;;;;;;;1.08;0.80;;;0.70;98.20;;;;;;2090193;28;20227;-68
2021/12/07 04:00:30;;;;;;;2.00;1.10;;;0.70;98.00;;;;;;2089930;28;20259;-68
2021/12/07 04:01:31;;;;;;;0.98;0.70;;;0.70;97.90;;;;;;2090865;28;20661;-68
2021/12/07 04:02:37;;;;;;;1.77;0.70;;;0.70;97.80;;;;;;2090771;28;20178;-68
2021/12/07 04:03:39;;;;;;;2.20;0.80;;;0.70;98.00;;;;;;2090087;28;20204;-68
2021/12/07 04:04:40;;;;;;;1.73;0.80;;;0.80;98.00;;;;;;2082687;28;20177;-68
2021/12/07 04:05:45;;;;;;;1.70;0.70;;;0.70;98.10;;;;;;2089990;28;20277;-68
2021/12/07 04:06:46;;;;;;;2.58;0.80;;;0.70;97.60;;;;;;2090483;28;21006;-68
2021/12/07 04:07:48;;;;;;;1.53;0.70;;;0.80;97.60;;;;;;2090658;28;20203;-68
2021/12/07 04:08:49;;;;;;;1.60;0.70;;;0.70;97.50;;;;;;2089979;28;20461;-68
2021/12/07 04:09:50;;;;;;;1.43;0.80;;;0.70;97.60;;;;;;2090033;28;20230;-68
2021/12/07 04:10:52;;;;;;;0.70;0.67;;;0.70;97.90;;;;;;2090484;28;20183;-68
2021/12/07 04:11:54;;;;;;;1.00;0.73;;;0.70;97.50;;;;;;2090894;28;20267;-68
2021/12/07 04:12:54;;;;;;;1.10;0.70;;;0.70;97.60;;;;;;2091831;28;20192;-68
2021/12/07 04:13:55;;;;;;;0.93;0.80;;;0.70;97.30;;;;;;2092247;28;20180;-68
2021/12/07 04:14:56;;;;;;;1.37;0.83;;;0.70;97.50;;;;;;2090800;28;20246;-68
2021/12/07 04:15:57;;;;;;;4.53;1.00;;;0.70;97.40;;;;;;2090088;28;20180;-68
2021/12/07 04:16:57;;;;;;;3.60;0.80;;;0.70;97.20;;;;;;2090356;28;20275;-68
2021/12/07 04:17:58;;;;;;;3.03;1.00;;;0.70;97.30;;;;;;2090690;28;20196;-68
2021/12/07 04:19:00;;;;;;;2.90;1.10;;;0.70;97.30;;;;;;2090647;28;20180;-68
2021/12/07 04:20:04;;;;;;;1.20;0.80;;;0.70;97.00;;;;;;2090488;28;20180;-67
2021/12/07 04:21:05;;;;;;;1.70;0.80;;;0.70;97.30;;;;;;2090708;28;20253;-67
2021/12/07 04:22:06;;;;;;;1.30;0.88;;;0.70;97.30;;;;;;2090581;28;20185;-68
2021/12/07 04:23:07;;;;;;;1.67;0.93;;;0.70;97.00;;;;;;2090507;28;20180;-68
2021/12/07 04:24:08;;;;;;;1.65;1.00;;;0.70;97.00;;;;;;2089964;28;20231;-68
2021/12/07 04:25:12;;;;;;;1.07;0.80;;;0.70;96.50;;;;;;2089981;28;20710;-68
2021/12/07 04:26:14;;;;;;;1.88;0.90;;;0.80;96.00;;;;;;2090619;28;20172;-68
2021/12/07 04:27:15;;;;;;;0.90;0.80;;;0.80;95.90;;;;;;2089640;28;20728;-68
2021/12/07 04:28:16;;;;;;;3.67;1.13;;;0.80;96.00;;;;;;2090037;28;20195;-68
2021/12/07 04:29:16;;;;;;;1.53;1.00;;;0.80;96.10;;;;;;2090604;28;20630;-68
2021/12/07 04:30:30;;;;;;;1.00;0.90;;;0.70;96.20;;;;;;2090537;28;20191;-68
2021/12/07 04:31:31;;;;;;;2.63;0.90;;;0.80;96.30;;;;;;2090622;28;20173;-68
2021/12/07 04:32:31;;;;;;;2.80;0.93;;;0.80;96.20;;;;;;2089964;28;20184;-68
2021/12/07 04:33:33;;;;;;;0.80;0.80;;;0.70;96.20;;;;;;2089802;28;20173;-68
2021/12/07 04:34:34;;;;;;;1.02;0.80;;;0.70;96.50;;;;;;2090424;28;20184;-68
2021/12/07 04:35:37;;;;;;;1.20;0.90;;;0.70;96.80;;;;;;2090369;28;20247;-68
2021/12/07 04:36:38;;;;;;;2.75;0.98;;;0.80;97.20;;;;;;2089605;28;20181;-68
2021/12/07 04:37:39;;;;;;;4.77;1.37;;;0.70;97.50;;;;;;2089672;28;20205;-68
2021/12/07 04:38:41;;;;;;;2.08;0.90;;;0.70;97.70;;;;;;2090316;28;20226;-68
2021/12/07 04:39:41;;;;;;;2.97;1.10;;;0.70;97.90;;;;;;2090328;28;20189;-68
2021/12/07 04:40:42;;;;;;;3.23;1.10;;;0.70;98.00;;;;;;2090272;28;20200;-68
2021/12/07 04:41:46;;;;;;;1.60;1.00;;;0.70;98.30;;;;;;2089732;28;20185;-68
2021/12/07 04:42:48;;;;;;;1.33;1.20;;;0.70;98.40;;;;;;2089881;28;20188;-68
2021/12/07 04:43:49;;;;;;;3.78;1.30;;;0.70;98.50;;;;;;2089492;28;20687;-68
2021/12/07 04:44:54;;;;;;;3.97;1.20;;;0.70;98.30;;;;;;2089801;28;20177;-68
2021/12/07 04:47:12;;;;;;;2.15;1.23;;;0.60;98.50;;;;;;2090351;28;20227;-68
2021/12/07 04:49:52;;;;;;;2.00;1.40;;;0.60;97.60;;;;;;2089748;28;20267;-68
2021/12/07 04:57:47;;;;;;;4.13;1.02;;;0.60;97.00;;;;;;2081360;28;20618;-68
2021/12/07 04:58:49;;;;;;;3.80;1.10;;;0.60;97.00;;;;;;2081745;28;20616;-68
2021/12/07 04:59:50;;;;;;;5.32;1.15;;;0.60;96.60;;;;;;2081903;28;20657;-68
2021/12/07 05:00:51;;;;;;;2.07;1.00;;;0.60;96.50;;;;;;2081852;28;20181;-68
2021/12/07 05:01:52;;;;;;;1.50;1.05;;;0.60;96.60;;;;;;2082150;28;20182;-67
2021/12/07 05:02:58;;;;;;;3.37;1.00;;;0.60;96.40;;;;;;2081872;28;20190;-68
2021/12/07 05:04:02;;;;;;;0.73;0.73;;;0.60;95.60;;;;;;2082035;28;20169;-68
2021/12/07 05:05:03;;;;;;;1.98;1.00;;;0.70;95.50;;;;;;2089350;28;20184;-67
2021/12/07 05:06:07;;;;;;;2.33;1.23;;;0.60;95.60;;;;;;2089301;28;20176;-68
2021/12/07 05:07:19;;;;;;;2.05;1.30;;;0.70;95.30;;;;;;2081542;28;20283;-68
2021/12/07 05:14:26;;;;;;;1.40;0.90;;;0.50;94.90;;;;;;2082065;28;20636;-68
2021/12/07 05:17:02;;;;;;;1.35;1.00;;;0.60;94.90;;;;;;2081834;28;20176;-67
2021/12/07 05:18:22;;;;;;;2.20;1.40;;;0.60;94.50;;;;;;2081909;28;20180;-68
2021/12/07 05:24:49;;;;;;;4.15;1.10;;;0.50;94.60;;;;;;2090128;28;20169;-68
2021/12/07 05:34:37;;;;;;;3.30;1.10;;;0.50;95.00;;;;;;2089876;28;20242;-68
2021/12/07 05:37:49;;;;;;;1.67;1.00;;;0.40;94.70;;;;;;2084461;28;20216;-66
2021/12/07 05:38:49;;;;;;;1.55;1.00;;;0.40;94.70;;;;;;2094307;28;20673;-67
2021/12/07 05:39:51;;;;;;;1.97;1.20;;;0.40;94.70;;;;;;2097451;28;20183;-66
2021/12/07 05:40:51;;;;;;;2.35;1.05;;;0.40;94.70;;;;;;2089788;28;20181;-67
2021/12/07 05:41:52;;;;;;;1.47;1.00;;;0.40;95.00;;;;;;2089237;28;20180;-67
2021/12/07 05:42:53;;;;;;;4.70;1.83;;;0.40;94.90;;;;;;2081029;28;20178;-66
2021/12/07 05:43:54;;;;;;;3.83;1.35;;;0.40;95.00;;;;;;2089295;28;20181;-67
2021/12/07 05:44:55;;;;;;;2.83;1.10;;;0.40;95.00;;;;;;2090048;28;20212;-67
2021/12/07 05:45:56;;;;;;;1.80;1.10;;;0.40;94.90;;;;;;2089887;28;20666;-66
2021/12/07 05:46:56;;;;;;;3.47;1.20;;;0.50;94.90;;;;;;2089855;28;20291;-67
2021/12/07 05:47:59;;;;;;;1.23;0.80;;;0.50;94.80;;;;;;2089299;28;20208;-67
2021/12/07 05:49:00;;;;;;;3.85;1.13;;;0.50;94.70;;;;;;2089266;28;20184;-69
2021/12/07 05:50:00;;;;;;;1.47;1.00;;;0.50;94.80;;;;;;2089790;28;20192;-69
2021/12/07 05:51:01;;;;;;;4.80;1.60;;;0.50;94.30;;;;;;2089334;28;20511;-68
2021/12/07 05:52:03;;;;;;;2.92;1.15;;;0.50;94.40;;;;;;2089281;28;20665;-68
2021/12/07 05:53:07;;;;;;;1.88;1.02;;;0.50;94.50;;;;;;2089777;28;20279;-68
2021/12/07 05:54:08;;;;;;;3.58;1.02;;;0.50;94.50;;;;;;2089740;28;20184;-68
2021/12/07 05:55:09;;;;;;;2.33;1.10;;;0.50;94.80;;;;;;2089149;28;20692;-68
2021/12/07 05:56:09;;;;;;;1.73;1.00;;;0.50;95.00;;;;;;2080848;28;20185;-68
2021/12/07 05:57:10;;;;;;;2.33;0.90;;;0.50;95.00;;;;;;2088882;28;20258;-68
2021/12/07 05:58:12;;;;;;;5.13;1.00;;;0.50;94.40;;;;;;2089988;28;20562;-68
2021/12/07 05:59:14;;;;;;;1.73;1.10;;;0.50;94.30;;;;;;2089579;28;20176;-68
2021/12/07 06:00:26;;;;;;;3.08;1.05;;;0.50;94.40;;;;;;2089687;28;20693;-68
2021/12/07 06:01:27;;;;;;;1.48;1.00;;;0.50;94.40;;;;;;2089944;28;20168;-68
2021/12/07 06:02:28;;;;;;;4.10;1.10;;;0.50;93.90;;;;;;2089832;28;20644;-68
2021/12/07 06:03:29;;;;;;;1.65;1.40;;;0.50;94.00;;;;;;2089281;28;20187;-68
2021/12/07 06:04:30;;;;;;;2.93;1.33;;;0.50;94.20;;;;;;2089058;28;20588;-68
2021/12/07 06:05:32;;;;;;;3.58;1.10;;;0.50;94.50;;;;;;2089852;28;20286;-68
2021/12/07 06:06:33;;;;;;;1.77;1.10;;;0.60;94.10;;;;;;2089768;28;20192;-68
2021/12/07 06:07:34;;;;;;;3.53;1.00;;;0.60;94.20;;;;;;2089639;28;20732;-68
2021/12/07 06:08:34;;;;;;;3.00;1.00;;;0.60;94.00;;;;;;2089851;28;20180;-68
2021/12/07 06:09:36;;;;;;;2.50;1.00;;;0.60;93.80;;;;;;2089772;28;20184;-68
2021/12/07 06:10:37;;;;;;;2.78;0.98;;;0.60;93.70;;;;;;2088916;28;20180;-68
2021/12/07 06:11:37;;;;;;;2.70;0.93;;;0.60;93.90;;;;;;2089160;28;20871;-68
2021/12/07 06:12:38;;;;;;;3.00;0.97;;;0.50;94.00;;;;;;2089803;28;20191;-68
2021/12/07 06:13:39;;;;;;;3.63;1.00;;;0.50;94.10;;;;;;2089178;28;20188;-68
2021/12/07 06:14:43;;;;;;;1.13;0.90;;;0.50;94.00;;;;;;2089292;28;20177;-68
2021/12/07 06:15:45;;;;;;;1.45;0.90;;;0.50;93.90;;;;;;2089611;28;20184;-67
2021/12/07 06:16:47;;;;;;;3.53;1.13;;;0.40;93.90;;;;;;2090151;28;20355;-66
2021/12/07 06:17:48;;;;;;;1.80;0.98;;;0.40;93.70;;;;;;2092218;28;20215;-67
2021/12/07 06:18:49;;;;;;;3.75;0.90;;;0.40;94.00;;;;;;2091776;28;20184;-66
2021/12/07 06:19:51;;;;;;;1.80;0.90;;;0.40;94.10;;;;;;2090748;28;20179;-68
2021/12/07 06:20:52;;;;;;;2.83;0.90;;;0.40;94.30;;;;;;2089525;28;20712;-67
2021/12/07 06:21:52;;;;;;;2.23;0.80;;;0.30;94.10;;;;;;2090050;28;20180;-66
2021/12/07 06:22:53;;;;;;;2.80;1.00;;;0.30;93.90;;;;;;2089916;28;20188;-68
2021/12/07 06:23:54;;;;;;;2.93;0.90;;;0.40;93.70;;;;;;2089771;28;20187;-68
2021/12/07 06:24:55;;;;;;;6.63;1.10;;;0.30;93.60;;;;;;2089126;28;20187;-68
2021/12/07 06:25:57;;;;;;;2.20;1.10;;;0.30;93.70;;;;;;2089073;28;20176;-68
2021/12/07 06:26:58;;;;;;;3.13;1.00;;;0.30;93.70;;;;;;2089508;28;20664;-68
2021/12/07 06:27:58;;;;;;;2.83;0.93;;;0.30;93.80;;;;;;2088995;28;20185;-68
2021/12/07 06:29:00;;;;;;;2.60;1.10;;;0.30;94.00;;;;;;2089066;28;20173;-68
2021/12/07 06:30:01;;;;;;;2.33;1.20;;;0.30;93.70;;;;;;2088849;28;20250;-68
2021/12/07 06:31:01;;;;;;;3.57;0.87;;;0.30;93.50;;;;;;2089130;28;20188;-68
2021/12/07 06:32:03;;;;;;;1.60;0.90;;;0.40;93.60;;;;;;2089510;28;20185;-68
2021/12/07 06:33:03;;;;;;;2.13;0.98;;;0.40;93.60;;;;;;2089606;28;20653;-68
2021/12/07 06:34:04;;;;;;;2.93;1.00;;;0.40;93.70;;;;;;2089660;28;20192;-68
2021/12/07 06:35:08;;;;;;;2.50;0.93;;;0.30;93.80;;;;;;2089703;28;20663;-68
2021/12/07 06:36:09;;;;;;;2.35;1.10;;;0.30;93.80;;;;;;2089605;28;20263;-68
2021/12/07 06:37:10;;;;;;;2.15;0.85;;;0.30;93.90;;;;;;2088619;28;20230;-68
2021/12/07 06:38:10;;;;;;;1.93;0.93;;;0.30;93.60;;;;;;2089058;28;20188;-68
2021/12/07 06:39:11;;;;;;;2.60;1.20;;;0.40;93.50;;;;;;2089086;28;20634;-68
2021/12/07 06:40:12;;;;;;;2.03;0.80;;;0.40;93.50;;;;;;2088903;28;20625;-68
2021/12/07 06:41:13;;;;;;;7.10;1.00;;;0.40;93.20;;;;;;2089705;28;20203;-68
2021/12/07 06:42:14;;;;;;;1.95;1.00;;;0.40;93.30;;;;;;2089431;28;20176;-68
2021/12/07 06:43:15;;;;;;;2.03;0.90;;;0.40;93.30;;;;;;2082704;28;20192;-68
2021/12/07 06:44:15;;;;;;;2.85;1.00;;;0.40;93.30;;;;;;2084628;28;20234;-68
2021/12/07 06:45:17;;;;;;;1.60;1.10;;;0.40;93.10;;;;;;2086837;28;20260;-68
2021/12/07 06:46:17;;;;;;;1.77;1.00;;;0.30;93.30;;;;;;2088812;28;20207;-68
2021/12/07 06:47:18;;;;;;;2.03;1.30;;;0.30;93.20;;;;;;2089188;28;20200;-68
2021/12/07 06:48:19;;;;;;;8.13;3.33;;;0.30;93.10;;;;;;2089441;28;20179;-68
2021/12/07 06:49:21;;;;;;;4.60;2.05;;;0.40;93.20;;;;;;2088836;28;20267;-68
2021/12/07 06:50:23;;;;;;;1.83;1.10;;;0.40;93.20;;;;;;2080312;28;20181;-68
2021/12/07 06:51:24;;;;;;;5.45;2.40;;;0.40;93.20;;;;;;2088939;28;20200;-66
2021/12/07 06:52:24;;;;;;;6.40;1.50;;;0.40;93.00;;;;;;2089627;28;20238;-68
2021/12/07 06:53:26;;;;;;;1.80;1.30;;;0.40;93.10;;;;;;2089354;28;20883;-68
2021/12/07 06:54:26;;;;;;;3.60;1.17;;;0.40;92.90;;;;;;2088915;28;20181;-68
2021/12/07 06:55:27;;;;;;;1.77;1.10;;;0.40;93.00;;;;;;2088780;28;20280;-68
2021/12/07 06:56:28;;;;;;;2.47;1.60;;;0.40;92.90;;;;;;2089250;28;20180;-68
2021/12/07 06:57:29;;;;;;;3.80;1.98;;;0.40;92.90;;;;;;2088405;28;20211;-68
2021/12/07 06:58:30;;;;;;;7.77;3.00;;;0.40;93.00;;;;;;2088874;28;20553;-68
2021/12/07 06:59:31;;;;;;;4.05;1.40;;;0.40;92.80;;;;;;2088806;28;20165;-68